createdAt,value
2018-12-10T00:02:14.485Z,97790.27
2018-12-10T00:04:48.577Z,97794.36
2018-12-10T00:07:22.482Z,97796.00
2018-12-10T00:09:56.595Z,97795.81
2018-12-10T00:12:30.407Z,97795.02
2018-12-10T00:15:04.801Z,97801.84
2018-12-10T00:17:38.679Z,97810.81
2018-12-10T00:20:12.837Z,97815.52
2018-12-10T00:22:46.949Z,97814.34
2018-12-10T00:25:20.857Z,97826.12
2018-12-10T00:27:54.742Z,97820.87
2018-12-10T00:30:28.877Z,97822.81
2018-12-10T00:33:02.682Z,97822.28
2018-12-10T00:35:36.487Z,97824.59
2018-12-10T00:38:10.291Z,97824.45
2018-12-10T00:40:43.995Z,97836.77
2018-12-10T00:43:17.853Z,97834.80
2018-12-10T00:45:51.789Z,97838.08
2018-12-10T00:48:25.662Z,97845.11
2018-12-10T00:50:59.726Z,97842.30
2018-12-10T00:53:33.632Z,97858.13
2018-12-10T00:56:07.540Z,97856.20
2018-12-10T00:58:41.755Z,97856.09
2018-12-10T01:01:15.871Z,97854.59
2018-12-10T01:03:49.772Z,97854.30
2018-12-10T01:06:23.783Z,97865.58
2018-12-10T01:08:57.588Z,97872.58
2018-12-10T01:11:31.347Z,97880.75
2018-12-10T01:14:05.403Z,97879.78
2018-12-10T01:16:39.523Z,97843.03
2018-12-10T01:19:15.368Z,97879.27
2018-12-10T01:21:49.171Z,97888.11
2018-12-10T01:24:23.285Z,97896.13
2018-12-10T01:26:57.091Z,97896.78
2018-12-10T01:29:30.998Z,97902.50
2018-12-10T01:32:04.903Z,97901.84
2018-12-10T01:34:39.021Z,97911.63
2018-12-10T01:37:13.704Z,97902.96
2018-12-10T01:39:47.650Z,97926.20
2018-12-10T01:42:21.409Z,97931.25
2018-12-10T01:44:55.570Z,97936.33
2018-12-10T01:47:29.536Z,97931.24
2018-12-10T01:50:04.199Z,97945.80
2018-12-10T01:52:38.006Z,97933.67
2018-12-10T01:55:12.322Z,97948.72
2018-12-10T01:57:46.296Z,97950.39
2018-12-10T02:00:20.651Z,97956.58
2018-12-10T02:02:56.503Z,97950.73
2018-12-10T02:05:30.442Z,97953.34
2018-12-10T02:08:04.419Z,97955.94
2018-12-10T02:10:38.308Z,97952.84
2018-12-10T02:13:12.207Z,97961.19
2018-12-10T02:15:46.363Z,97963.30
2018-12-10T02:18:20.324Z,97968.20
2018-12-10T02:20:54.365Z,97970.81
2018-12-10T02:23:28.177Z,97971.96
2018-12-10T02:26:03.204Z,97975.89
2018-12-10T02:28:42.946Z,97977.03
2018-12-10T02:31:16.858Z,97967.70
2018-12-10T02:33:50.763Z,97972.59
2018-12-10T02:36:25.176Z,97970.16
2018-12-10T02:38:59.292Z,97973.91
2018-12-10T02:41:36.272Z,97968.03
2018-12-10T02:44:10.283Z,97964.78
2018-12-10T02:46:44.190Z,97968.70
2018-12-10T02:49:18.160Z,97978.16
2018-12-10T02:51:52.211Z,97976.69
2018-12-10T02:54:25.954Z,97989.27
2018-12-10T02:57:00.025Z,98001.38
2018-12-10T02:59:33.941Z,98007.55
2018-12-10T03:02:07.853Z,98016.70
2018-12-10T03:04:41.747Z,98020.00
2018-12-10T03:07:15.609Z,98025.89
2018-12-10T03:09:49.765Z,98022.56
2018-12-10T03:12:23.576Z,98022.37
2018-12-10T03:14:57.374Z,98010.80
2018-12-10T03:17:31.384Z,98020.41
2018-12-10T03:20:05.402Z,98023.19
2018-12-10T03:22:39.148Z,98028.72
2018-12-10T03:25:13.515Z,98036.53
2018-12-10T03:27:47.600Z,98035.56
2018-12-10T03:30:21.670Z,98025.14
2018-12-10T03:32:55.858Z,97997.91
2018-12-10T03:35:29.975Z,98042.61
2018-12-10T03:38:03.715Z,98040.22
2018-12-10T03:40:37.882Z,98042.22
2018-12-10T03:43:11.889Z,98040.27
2018-12-10T03:45:45.798Z,98056.95
2018-12-10T03:48:19.603Z,98064.48
2018-12-10T03:50:53.508Z,98063.49
2018-12-10T03:53:27.521Z,98049.74
2018-12-10T03:56:01.427Z,98058.52
2018-12-10T03:58:35.485Z,98053.36
2018-12-10T04:01:10.528Z,98064.39
2018-12-10T04:03:46.533Z,98050.13
2018-12-10T04:06:20.536Z,98060.12
2018-12-10T04:08:54.320Z,98062.56
2018-12-10T04:11:28.453Z,98072.20
2018-12-10T04:14:02.569Z,98071.22
2018-12-10T04:16:36.270Z,98077.27
2018-12-10T04:19:10.381Z,98088.48
2018-12-10T04:21:44.291Z,98099.05
2018-12-10T04:24:18.285Z,98105.78
2018-12-10T04:26:52.314Z,98110.70
2018-12-10T04:29:26.174Z,98108.52
2018-12-10T04:32:00.332Z,98101.05
2018-12-10T04:34:34.002Z,98088.55
2018-12-10T04:37:08.038Z,98100.66
2018-12-10T04:39:41.945Z,98109.52
2018-12-10T04:42:15.854Z,98112.13
2018-12-10T04:44:49.555Z,98114.94
2018-12-10T04:47:23.462Z,98113.63
2018-12-10T04:49:57.498Z,98129.53
2018-12-10T04:52:31.381Z,98135.25
2018-12-10T04:55:05.595Z,98129.98
2018-12-10T04:57:39.606Z,98136.45
2018-12-10T05:00:13.511Z,98117.09
2018-12-10T05:02:47.213Z,98116.13
2018-12-10T05:05:21.325Z,98117.83
2018-12-10T05:07:55.351Z,98126.95
2018-12-10T05:10:29.347Z,98129.92
2018-12-10T05:13:03.297Z,98123.77
2018-12-10T05:15:37.165Z,98128.34
2018-12-10T05:18:11.373Z,98126.52
2018-12-10T05:20:45.286Z,98130.72
2018-12-10T05:23:19.135Z,98123.99
2018-12-10T05:25:53.308Z,98127.98
2018-12-10T05:28:27.310Z,98132.36
2018-12-10T05:31:01.320Z,98127.86
2018-12-10T05:33:35.169Z,98140.19
2018-12-10T05:36:09.112Z,98139.41
2018-12-10T05:38:43.147Z,98129.23
2018-12-10T05:41:16.969Z,98142.33
2018-12-10T05:43:50.706Z,98135.66
2018-12-10T05:46:24.821Z,98134.66
2018-12-10T05:48:58.878Z,98151.33
2018-12-10T05:51:32.854Z,98144.62
2018-12-10T05:54:06.840Z,98152.92
2018-12-10T05:56:40.904Z,98154.27
2018-12-10T05:59:14.771Z,98156.23
2018-12-10T06:01:48.821Z,98152.31
2018-12-10T06:04:22.728Z,98152.80
2018-12-10T06:06:57.052Z,98162.39
2018-12-10T06:09:30.917Z,98166.30
2018-12-10T06:12:05.067Z,98167.20
2018-12-10T06:14:39.178Z,98174.36
2018-12-10T06:17:12.873Z,98170.33
2018-12-10T06:19:46.785Z,98176.27
2018-12-10T06:22:20.695Z,98173.84
2018-12-10T06:24:54.325Z,98177.03
2018-12-10T06:27:28.310Z,98175.93
2018-12-10T06:30:02.276Z,98184.73
2018-12-10T06:32:36.424Z,98189.06
2018-12-10T06:35:10.582Z,98203.31
2018-12-10T06:37:44.660Z,98197.73
2018-12-10T06:40:18.536Z,98205.32
2018-12-10T06:42:52.454Z,98212.02
2018-12-10T06:45:26.574Z,98207.49
2018-12-10T06:48:00.457Z,98208.92
2018-12-10T06:50:34.595Z,98212.88
2018-12-10T06:53:08.402Z,98214.80
2018-12-10T06:55:42.715Z,98220.77
2018-12-10T06:58:16.529Z,98234.37
2018-12-10T07:00:50.735Z,98229.56
2018-12-10T07:03:24.539Z,98229.80
2018-12-10T07:05:58.243Z,98226.11
2018-12-10T07:08:32.252Z,98234.56
2018-12-10T07:11:06.291Z,98234.20
2018-12-10T07:13:40.579Z,98234.77
2018-12-10T07:16:14.796Z,98235.72
2018-12-10T07:18:48.497Z,98238.53
2018-12-10T07:21:22.607Z,98240.84
2018-12-10T07:23:56.517Z,98240.02
2018-12-10T07:26:30.827Z,98237.88
2018-12-10T07:29:05.046Z,98246.70
2018-12-10T07:31:39.055Z,98246.36
2018-12-10T07:34:12.875Z,98247.05
2018-12-10T07:36:46.973Z,98250.66
2018-12-10T07:39:20.881Z,98256.28
2018-12-10T07:41:54.788Z,98261.34
2018-12-10T07:44:28.494Z,98268.42
2018-12-10T07:47:02.380Z,98270.77
2018-12-10T07:49:36.510Z,98271.52
2018-12-10T07:52:10.312Z,98275.60
2018-12-10T07:54:44.276Z,98292.67
2018-12-10T07:57:18.290Z,98287.45
2018-12-10T07:59:52.330Z,98287.95
2018-12-10T08:02:26.351Z,98300.41
2018-12-10T08:05:00.211Z,98295.53
2018-12-10T08:07:34.371Z,98303.77
2018-12-10T08:10:08.694Z,98302.99
2018-12-10T08:12:42.594Z,98314.19
2018-12-10T08:15:16.520Z,98311.48
2018-12-10T08:17:50.510Z,98308.78
2018-12-10T08:20:24.378Z,98303.25
2018-12-10T08:22:58.532Z,98306.88
2018-12-10T08:25:32.540Z,98313.66
2018-12-10T08:28:06.652Z,98305.16
2018-12-10T08:30:40.511Z,98311.35
2018-12-10T08:33:14.472Z,98314.55
2018-12-10T08:35:48.477Z,98323.11
2018-12-10T08:38:22.389Z,98339.87
2018-12-10T08:40:56.498Z,98342.47
2018-12-10T08:43:30.507Z,98349.67
2018-12-10T08:46:04.538Z,98337.96
2018-12-10T08:48:38.466Z,98351.54
2018-12-10T08:51:12.680Z,98348.38
2018-12-10T08:53:46.746Z,98351.91
2018-12-10T08:56:20.757Z,98350.08
2018-12-10T08:58:54.567Z,98353.73
2018-12-10T09:01:28.572Z,98352.45
2018-12-10T09:04:02.380Z,98355.06
2018-12-10T09:06:36.189Z,98356.38
2018-12-10T09:09:10.091Z,98365.92
2018-12-10T09:11:44.149Z,98363.09
2018-12-10T09:14:18.213Z,98368.45
2018-12-10T09:16:52.228Z,98366.67
2018-12-10T09:19:26.299Z,98376.81
2018-12-10T09:22:00.246Z,98381.72
2018-12-10T09:24:34.206Z,98392.53
2018-12-10T09:27:08.361Z,98394.01
2018-12-10T09:29:42.414Z,98401.86
2018-12-10T09:32:17.049Z,98405.47
2018-12-10T09:34:51.214Z,98408.39
2018-12-10T09:37:25.116Z,98401.04
2018-12-10T09:39:58.928Z,98404.08
2018-12-10T09:42:32.686Z,98405.30
2018-12-10T09:45:06.955Z,98411.77
2018-12-10T09:47:40.690Z,98404.58
2018-12-10T09:50:14.731Z,98408.76
2018-12-10T09:52:48.745Z,98408.22
2018-12-10T09:55:22.876Z,98404.70
2018-12-10T09:57:56.988Z,98406.53
2018-12-10T10:00:30.702Z,98403.95
2018-12-10T10:03:04.906Z,98397.59
2018-12-10T10:05:38.710Z,98393.83
2018-12-10T10:08:12.618Z,98398.48
2018-12-10T10:10:46.677Z,98399.28
2018-12-10T10:13:20.841Z,98404.12
2018-12-10T10:15:54.750Z,98398.42
2018-12-10T10:18:28.554Z,98403.03
2018-12-10T10:21:02.563Z,98408.48
2018-12-10T10:23:36.471Z,98396.37
2018-12-10T10:26:10.379Z,98398.20
2018-12-10T10:28:44.592Z,98399.19
2018-12-10T10:31:18.704Z,98403.93
2018-12-10T10:33:52.668Z,98404.84
2018-12-10T10:36:26.805Z,98407.19
2018-12-10T10:39:00.835Z,98410.51
2018-12-10T10:41:34.954Z,98406.42
2018-12-10T10:44:08.777Z,98413.95
2018-12-10T10:46:42.512Z,98406.36
2018-12-10T10:49:16.531Z,98406.06
2018-12-10T10:51:50.581Z,98393.74
2018-12-10T10:54:24.486Z,98393.72
2018-12-10T10:56:58.435Z,98384.08
2018-12-10T10:59:32.506Z,98389.25
2018-12-10T11:02:08.458Z,98385.59
2018-12-10T11:04:42.286Z,98382.50
2018-12-10T11:07:16.380Z,98387.38
2018-12-10T11:09:50.284Z,98389.30
2018-12-10T11:12:24.191Z,98386.63
2018-12-10T11:14:58.101Z,98372.91
2018-12-10T11:17:32.108Z,98377.36
2018-12-10T11:20:08.269Z,98377.69
2018-12-10T11:22:42.175Z,98380.31
2018-12-10T11:25:16.286Z,98372.95
2018-12-10T11:27:50.194Z,98372.98
2018-12-10T11:30:24.101Z,98363.95
2018-12-10T11:32:57.908Z,98368.70
2018-12-10T11:35:31.713Z,98361.38
2018-12-10T11:38:05.618Z,98357.61
2018-12-10T11:40:39.526Z,98362.88
2018-12-10T11:43:13.377Z,98357.50
2018-12-10T11:45:47.545Z,98361.28
2018-12-10T11:48:21.348Z,98356.84
2018-12-10T11:50:55.256Z,98350.67
2018-12-10T11:53:29.040Z,98354.08
2018-12-10T11:56:03.153Z,98355.32
2018-12-10T11:58:37.143Z,98365.03
2018-12-10T12:01:11.295Z,98357.16
2018-12-10T12:03:45.100Z,98347.98
2018-12-10T12:06:19.008Z,98343.25
2018-12-10T12:08:52.914Z,98344.72
2018-12-10T12:11:26.823Z,98342.13
2018-12-10T12:14:00.934Z,98337.88
2018-12-10T12:16:34.739Z,98343.12
2018-12-10T12:19:11.429Z,98362.44
2018-12-10T12:21:44.500Z,98358.00
2018-12-10T12:24:18.372Z,98365.55
2018-12-10T12:26:52.417Z,98365.48
2018-12-10T12:29:26.220Z,98376.77
2018-12-10T12:32:00.332Z,98381.23
2018-12-10T12:34:34.208Z,98379.75
2018-12-10T12:37:08.161Z,98382.99
2018-12-10T12:39:42.161Z,98377.83
2018-12-10T12:42:16.063Z,98373.02
2018-12-10T12:44:50.072Z,98368.33
2018-12-10T12:47:23.775Z,98369.78
2018-12-10T12:49:57.750Z,98373.39
2018-12-10T12:52:31.901Z,98366.88
2018-12-10T12:55:05.727Z,98361.47
2018-12-10T12:57:39.918Z,98359.31
2018-12-10T13:00:13.782Z,98355.24
2018-12-10T13:02:47.957Z,98347.89
2018-12-10T13:05:21.946Z,98340.77
2018-12-10T13:07:56.159Z,98341.16
2018-12-10T13:10:29.966Z,98328.65
2018-12-10T13:13:03.835Z,98333.48
2018-12-10T13:15:37.986Z,98330.35
2018-12-10T13:18:11.789Z,98329.67
2018-12-10T13:20:45.697Z,98339.63
2018-12-10T13:23:19.570Z,98330.68
2018-12-10T13:25:53.659Z,98336.80
2018-12-10T13:28:27.832Z,98343.59
2018-12-10T13:31:01.939Z,98343.97
2018-12-10T13:33:35.953Z,98348.58
2018-12-10T13:36:09.977Z,98343.75
2018-12-10T13:38:44.072Z,98346.88
2018-12-10T13:41:17.875Z,98343.95
2018-12-10T13:43:51.886Z,98354.45
2018-12-10T13:46:26.100Z,98355.62
2018-12-10T13:48:59.873Z,98349.02
2018-12-10T13:51:33.914Z,98339.17
2018-12-10T13:54:07.722Z,98350.84
2018-12-10T13:56:41.733Z,98350.19
2018-12-10T13:59:15.636Z,98370.12
2018-12-10T14:01:49.549Z,98375.38
2018-12-10T14:04:24.892Z,98363.30
2018-12-10T14:06:58.753Z,98357.45
2018-12-10T14:09:32.670Z,98367.09
2018-12-10T14:12:06.708Z,98362.76
2018-12-10T14:14:40.515Z,98367.47
2018-12-10T14:17:14.529Z,98370.35
2018-12-10T14:19:49.465Z,98363.36
2018-12-10T14:22:23.644Z,98356.80
2018-12-10T14:24:57.737Z,98358.62
2018-12-10T14:27:32.159Z,98356.39
2018-12-10T14:30:06.743Z,98358.52
2018-12-10T14:32:40.733Z,98365.98
2018-12-10T14:35:14.540Z,98365.35
2018-12-10T14:37:48.545Z,98357.86
2018-12-10T14:40:22.573Z,98363.79
2018-12-10T14:42:56.464Z,98362.27
2018-12-10T14:45:31.257Z,98365.80
2018-12-10T14:48:05.303Z,98367.39
2018-12-10T14:50:39.310Z,98365.91
2018-12-10T14:53:13.218Z,98362.34
2018-12-10T14:55:47.127Z,98363.48
2018-12-10T14:58:20.930Z,98365.48
2018-12-10T15:00:54.743Z,98371.31
2018-12-10T15:03:28.746Z,98375.86
2018-12-10T15:06:02.601Z,98383.95
2018-12-10T15:08:36.661Z,98385.83
2018-12-10T15:11:10.568Z,98384.00
2018-12-10T15:13:44.578Z,98378.77
2018-12-10T15:16:18.485Z,98372.41
2018-12-10T15:18:52.597Z,98384.31
2018-12-10T15:21:26.505Z,98376.55
2018-12-10T15:24:00.414Z,98381.78
2018-12-10T15:26:34.217Z,98378.25
2018-12-10T15:29:07.925Z,98384.78
2018-12-10T15:31:41.931Z,98403.13
2018-12-10T15:34:15.733Z,98417.98
2018-12-10T15:36:49.553Z,98451.41
2018-12-10T15:39:23.449Z,98456.43
2018-12-10T15:41:57.255Z,98454.55
2018-12-10T15:44:31.166Z,98447.98
2018-12-10T15:47:05.274Z,98413.50
2018-12-10T15:49:39.035Z,98427.08
2018-12-10T15:52:13.099Z,98432.75
2018-12-10T15:54:47.095Z,98434.52
2018-12-10T15:57:20.879Z,98442.81
2018-12-10T15:59:54.870Z,98443.14
2018-12-10T16:02:29.023Z,98428.86
2018-12-10T16:05:03.031Z,98421.14
2018-12-10T16:07:37.143Z,98419.06
2018-12-10T16:10:11.050Z,98421.48
2018-12-10T16:12:44.958Z,98419.86
2018-12-10T16:15:18.810Z,98421.52
2018-12-10T16:17:52.898Z,98412.73
2018-12-10T16:20:26.987Z,98415.34
2018-12-10T16:23:00.894Z,98416.36
2018-12-10T16:25:34.598Z,98419.31
2018-12-10T16:28:08.505Z,98416.25
2018-12-10T16:30:42.720Z,98416.08
2018-12-10T16:33:16.590Z,98418.56
2018-12-10T16:35:51.249Z,98414.91
2018-12-10T16:38:25.156Z,98410.57
2018-12-10T16:40:59.065Z,98416.62
2018-12-10T16:43:33.278Z,98403.66
2018-12-10T16:46:07.192Z,98410.54
2018-12-10T16:48:41.196Z,98404.49
2018-12-10T16:51:15.049Z,98408.41
2018-12-10T16:53:50.089Z,98407.41
2018-12-10T16:56:24.248Z,98408.34
2018-12-10T16:58:58.053Z,98401.88
2018-12-10T17:01:31.962Z,98406.02
2018-12-10T17:04:05.948Z,98411.67
2018-12-10T17:06:39.721Z,98411.36
2018-12-10T17:09:13.890Z,98410.25
2018-12-10T17:11:47.999Z,98417.31
2018-12-10T17:14:21.803Z,98414.86
2018-12-10T17:16:55.813Z,98420.40
2018-12-10T17:19:29.424Z,98427.69
2018-12-10T17:22:03.424Z,98425.45
2018-12-10T17:24:37.433Z,98422.27
2018-12-10T17:27:11.307Z,98430.77
2018-12-10T17:29:45.350Z,98422.34
2018-12-10T17:32:19.059Z,98423.17
2018-12-10T17:34:52.877Z,98431.25
2018-12-10T17:37:26.767Z,98427.05
2018-12-10T17:40:00.535Z,98429.32
2018-12-10T17:42:34.601Z,98421.95
2018-12-10T17:45:09.612Z,98430.07
2018-12-10T17:47:43.778Z,98426.45
2018-12-10T17:50:17.735Z,98425.66
2018-12-10T17:52:51.744Z,98420.69
2018-12-10T17:55:25.500Z,98416.64
2018-12-10T17:57:59.330Z,98413.27
2018-12-10T18:00:33.465Z,98416.16
2018-12-10T18:03:07.372Z,98414.14
2018-12-10T18:05:41.282Z,98423.64
2018-12-10T18:08:15.288Z,98415.06
2018-12-10T18:10:49.093Z,98412.80
2018-12-10T18:13:23.285Z,98416.97
2018-12-10T18:15:57.269Z,98416.70
2018-12-10T18:18:31.430Z,98415.34
2018-12-10T18:21:05.101Z,98409.94
2018-12-10T18:23:39.142Z,98408.98
2018-12-10T18:26:13.051Z,98417.31
2018-12-10T18:28:47.137Z,98412.48
2018-12-10T18:31:21.165Z,98364.98
2018-12-10T18:33:55.250Z,98411.59
2018-12-10T18:36:29.164Z,98410.90
2018-12-10T18:39:03.609Z,98416.94
2018-12-10T18:41:37.517Z,98411.78
2018-12-10T18:44:11.425Z,98413.82
2018-12-10T18:46:45.175Z,98419.53
2018-12-10T18:49:19.137Z,98410.22
2018-12-10T18:51:53.005Z,98410.41
2018-12-10T18:54:27.177Z,98403.16
2018-12-10T18:57:01.164Z,98403.92
2018-12-10T18:59:34.998Z,98403.62
2018-12-10T19:02:08.787Z,98415.14
2018-12-10T19:04:42.885Z,98423.04
2018-12-10T19:07:16.808Z,98423.33
2018-12-10T19:09:50.802Z,98168.62
2018-12-10T19:12:24.915Z,98426.88
2018-12-10T19:14:59.231Z,98422.23
2018-12-10T19:17:33.142Z,98419.16
2018-12-10T19:20:13.485Z,98422.77
2018-12-10T19:22:43.718Z,98427.37
2018-12-10T19:25:17.603Z,98425.36
2018-12-10T19:27:51.739Z,98427.00
2018-12-10T19:30:25.543Z,98420.00
2018-12-10T19:32:59.452Z,98419.55
2018-12-10T19:35:33.560Z,98426.47
2018-12-10T19:38:07.373Z,98419.45
2018-12-10T19:40:41.273Z,98419.94
2018-12-10T19:43:15.365Z,98420.30
2018-12-10T19:45:49.294Z,98423.39
2018-12-10T19:48:23.302Z,98431.22
2018-12-10T19:50:57.317Z,98427.05
2018-12-10T19:53:31.325Z,98416.57
2018-12-10T19:56:05.180Z,98422.02
2018-12-10T19:58:39.347Z,98419.25
2018-12-10T20:01:13.645Z,98416.88
2018-12-10T20:03:47.995Z,98405.02
2018-12-10T20:06:27.926Z,98411.33
2018-12-10T20:09:02.034Z,98424.97
2018-12-10T20:11:35.946Z,98428.67
2018-12-10T20:14:10.156Z,98426.22
2018-12-10T20:16:44.281Z,98422.30
2018-12-10T20:19:18.292Z,98410.00
2018-12-10T20:21:52.185Z,98410.34
2018-12-10T20:24:26.093Z,98411.14
2018-12-10T20:27:00.106Z,98411.40
2018-12-10T20:29:34.219Z,98416.92
2018-12-10T20:32:10.007Z,98418.39
2018-12-10T20:34:44.080Z,98423.70
2018-12-10T20:37:17.877Z,98412.70
2018-12-10T20:39:51.891Z,98425.91
2018-12-10T20:42:25.593Z,98437.97
2018-12-10T20:44:59.405Z,98432.43
2018-12-10T20:47:33.202Z,98433.52
2018-12-10T20:50:07.473Z,98431.41
2018-12-10T20:52:41.735Z,98444.20
2018-12-10T20:55:15.525Z,98444.75
2018-12-10T20:57:49.548Z,98442.48
2018-12-10T21:00:23.455Z,98448.18
2018-12-10T21:02:57.191Z,98452.80
2018-12-10T21:05:31.203Z,98450.20
2018-12-10T21:08:05.180Z,98436.84
2018-12-10T21:10:39.004Z,98432.93
2018-12-10T21:13:13.196Z,98424.91
2018-12-10T21:15:47.252Z,98421.58
2018-12-10T21:18:21.427Z,98426.70
2018-12-10T21:20:55.227Z,98433.55
2018-12-10T21:23:29.133Z,98436.34
2018-12-10T21:26:03.043Z,98432.02
2018-12-10T21:28:36.922Z,98436.42
2018-12-10T21:31:10.812Z,98431.06
2018-12-10T21:33:44.863Z,98443.69
2018-12-10T21:36:19.590Z,98450.95
2018-12-10T21:38:53.507Z,98448.52
2018-12-10T21:41:27.713Z,98450.50
2018-12-10T21:44:01.622Z,98440.00
2018-12-10T21:46:35.234Z,98439.91
2018-12-10T21:49:09.192Z,98442.06
2018-12-10T21:51:43.308Z,98439.40
2018-12-10T21:54:17.452Z,98438.34
2018-12-10T21:56:51.564Z,98432.68
2018-12-10T21:59:25.473Z,98430.63
2018-12-10T22:01:59.549Z,98429.91
2018-12-10T22:04:33.558Z,98433.57
2018-12-10T22:07:07.602Z,98430.00
2018-12-10T22:09:41.411Z,98435.96
2018-12-10T22:12:15.108Z,98436.31
2018-12-10T22:14:49.668Z,98439.49
2018-12-10T22:17:23.451Z,98437.02
2018-12-10T22:19:57.561Z,98420.27
2018-12-10T22:22:31.357Z,98429.28
2018-12-10T22:25:05.773Z,98435.80
2018-12-10T22:27:39.987Z,98444.48
2018-12-10T22:30:13.832Z,98443.09
2018-12-10T22:32:47.685Z,98440.13
2018-12-10T22:35:21.571Z,98435.89
2018-12-10T22:37:55.516Z,98436.72
2018-12-10T22:40:29.529Z,98428.31
2018-12-10T22:43:03.387Z,98416.07
2018-12-10T22:45:37.544Z,98424.02
2018-12-10T22:48:11.210Z,98434.20
2018-12-10T22:50:45.062Z,98425.33
2018-12-10T22:53:19.162Z,98432.98
2018-12-10T22:55:52.966Z,98435.77
2018-12-10T22:58:27.078Z,98437.92
2018-12-10T23:01:01.073Z,98438.52
2018-12-10T23:03:34.996Z,98434.18
2018-12-10T23:06:08.668Z,98433.09
2018-12-10T23:08:43.499Z,98444.55
2018-12-10T23:11:17.434Z,98432.41
2018-12-10T23:13:51.239Z,98434.89
2018-12-10T23:16:25.044Z,98430.27
2018-12-10T23:18:58.841Z,98427.19
2018-12-10T23:21:32.858Z,98427.88
2018-12-10T23:24:06.768Z,98433.45
2018-12-10T23:26:40.675Z,98426.98
2018-12-10T23:29:14.484Z,98428.48
2018-12-10T23:31:48.692Z,98421.95
2018-12-10T23:34:22.462Z,98442.19
2018-12-10T23:36:56.403Z,98437.50
2018-12-10T23:39:30.412Z,98432.92
2018-12-10T23:42:04.183Z,98438.84
2018-12-10T23:44:43.870Z,98433.45
2018-12-10T23:47:17.766Z,98439.66
2018-12-10T23:49:51.726Z,98448.24
2018-12-10T23:52:25.785Z,98438.16
2018-12-10T23:55:00.102Z,98447.80
2018-12-10T23:57:33.804Z,98454.58
